createdAt,value
2024-05-09T00:00:40.227Z,99810.81
2024-05-09T00:03:10.256Z,99809.88
2024-05-09T00:05:40.852Z,99815.91
2024-05-09T00:08:10.515Z,99792.75
2024-05-09T00:10:41.744Z,99812.69
2024-05-09T00:13:10.736Z,99816.75
2024-05-09T00:15:39.028Z,99819.66
2024-05-09T00:18:08.172Z,99820.50
2024-05-09T00:20:39.605Z,99818.72
2024-05-09T00:23:09.267Z,99809.03
2024-05-09T00:25:37.136Z,99775.63
2024-05-09T00:28:07.434Z,99803.00
2024-05-09T00:30:37.234Z,99804.13
2024-05-09T00:33:06.709Z,99816.00
2024-05-09T00:35:35.554Z,99830.69
2024-05-09T00:38:03.273Z,99839.44
2024-05-09T00:40:39.140Z,99834.00
2024-05-09T00:43:13.927Z,99815.22
2024-05-09T00:45:42.776Z,99843.75
2024-05-09T00:48:14.953Z,99835.13
2024-05-09T00:50:46.743Z,99841.38
2024-05-09T00:53:16.950Z,99851.50
2024-05-09T00:55:45.242Z,99832.53
2024-05-09T00:58:17.018Z,99828.28
2024-05-09T01:00:45.200Z,99834.50
2024-05-09T01:03:14.240Z,99828.28
2024-05-09T01:05:43.547Z,99828.38
2024-05-09T01:08:12.203Z,99837.75
2024-05-09T01:10:42.879Z,99831.69
2024-05-09T01:13:14.983Z,99842.06
2024-05-09T01:15:42.819Z,99830.16
2024-05-09T01:18:12.465Z,99849.88
2024-05-09T01:20:43.925Z,99853.34
2024-05-09T01:23:16.624Z,99859.38
2024-05-09T01:25:45.151Z,99864.63
2024-05-09T01:28:13.196Z,99855.13
2024-05-09T01:30:51.329Z,99852.59
2024-05-09T01:33:18.806Z,99854.28
2024-05-09T01:35:46.853Z,99853.56
2024-05-09T01:38:17.437Z,99859.38
2024-05-09T01:40:45.764Z,99861.25
2024-05-09T01:43:13.144Z,99847.34
2024-05-09T01:45:41.591Z,99833.56
2024-05-09T01:48:10.571Z,99836.09
2024-05-09T01:50:41.649Z,99831.19
2024-05-09T01:53:12.790Z,99837.13
2024-05-09T01:55:43.431Z,99850.91
2024-05-09T01:58:10.968Z,99849.13
2024-05-09T02:00:41.506Z,99865.84
2024-05-09T02:03:14.892Z,99900.28
2024-05-09T02:05:45.933Z,99849.34
2024-05-09T02:08:15.176Z,99832.78
2024-05-09T02:10:45.967Z,99835.44
2024-05-09T02:13:13.749Z,99844.84
2024-05-09T02:15:41.537Z,99830.16
2024-05-09T02:18:09.351Z,99826.78
2024-05-09T02:20:40.079Z,99823.22
2024-05-09T02:23:09.444Z,99819.81
2024-05-09T02:25:37.076Z,99839.84
2024-05-09T02:28:07.553Z,99851.03
2024-05-09T02:30:40.035Z,99857.84
2024-05-09T02:33:11.705Z,99866.69
2024-05-09T02:35:41.266Z,99844.41
2024-05-09T02:38:10.268Z,99857.84
2024-05-09T02:40:39.430Z,99863.13
2024-05-09T02:43:12.899Z,99891.78
2024-05-09T02:45:40.980Z,99878.72
2024-05-09T02:48:11.722Z,99880.44
2024-05-09T02:50:40.729Z,99847.47
2024-05-09T02:53:09.418Z,99842.38
2024-05-09T02:55:38.178Z,99833.91
2024-05-09T02:58:10.290Z,99859.72
2024-05-09T03:00:41.256Z,99896.88
2024-05-09T03:03:12.603Z,99884.84
2024-05-09T03:05:42.269Z,99876.34
2024-05-09T03:08:10.078Z,99889.94
2024-05-09T03:10:38.974Z,99901.31
2024-05-09T03:13:13.200Z,99890.88
2024-05-09T03:15:42.130Z,99901.31
2024-05-09T03:18:10.062Z,99912.50
2024-05-09T03:20:38.407Z,99922.19
2024-05-09T03:23:08.655Z,99941.03
2024-05-09T03:25:37.993Z,99963.59
2024-05-09T03:28:06.400Z,99999.97
2024-05-09T03:30:41.362Z,100003.38
2024-05-09T03:33:10.877Z,100006.94
2024-05-09T03:35:38.563Z,100020.84
2024-05-09T03:38:05.957Z,100035.47
2024-05-09T03:40:34.083Z,100029.34
2024-05-09T03:43:01.511Z,100044.13
2024-05-09T03:45:28.773Z,100034.63
2024-05-09T03:47:58.947Z,100062.31
2024-05-09T03:50:33.634Z,100071.81
2024-05-09T03:53:03.816Z,100100.41
2024-05-09T03:55:32.169Z,100110.13
2024-05-09T03:57:59.910Z,100108.34
2024-05-09T04:00:35.611Z,100126.41
2024-05-09T04:03:11.307Z,100113.31
2024-05-09T04:05:41.603Z,100128.09
2024-05-09T04:08:10.432Z,100136.00
2024-05-09T04:10:39.051Z,100161.06
2024-05-09T04:13:06.828Z,100181.81
2024-05-09T04:15:34.125Z,100226.91
2024-05-09T04:18:02.202Z,100242.53
2024-05-09T04:20:38.275Z,100250.53
2024-05-09T04:23:11.262Z,100280.66
2024-05-09T04:25:41.606Z,100261.75
2024-05-09T04:28:09.142Z,100281.66
2024-05-09T04:30:39.639Z,100311.94
2024-05-09T04:33:11.418Z,100341.53
2024-05-09T04:35:44.135Z,100377.81
2024-05-09T04:38:11.998Z,100442.94
2024-05-09T04:40:39.536Z,100479.41
2024-05-09T04:43:13.910Z,100501.97
2024-05-09T04:45:41.390Z,100540.22
2024-05-09T04:48:09.411Z,100502.81
2024-05-09T04:50:39.044Z,100526.41
2024-05-09T04:53:11.476Z,100555.72
2024-05-09T04:55:40.881Z,100579.19
2024-05-09T04:58:09.200Z,100649.56
2024-05-09T05:00:38.449Z,100646.06
2024-05-09T05:03:10.850Z,100651.44
2024-05-09T05:05:41.532Z,100653.38
2024-05-09T05:08:15.126Z,100659.09
2024-05-09T05:10:43.693Z,100701.84
2024-05-09T05:13:11.590Z,100757.38
2024-05-09T05:15:38.922Z,100757.47
2024-05-09T05:18:06.667Z,100753.19
2024-05-09T05:20:34.735Z,100796.75
2024-05-09T05:23:02.529Z,100821.81
2024-05-09T05:25:32.693Z,100855.84
2024-05-09T05:28:00.234Z,100807.91
2024-05-09T05:30:32.768Z,100805.31
2024-05-09T05:33:02.098Z,100845.44
2024-05-09T05:35:29.806Z,100906.50
2024-05-09T05:37:57.433Z,100941.06
2024-05-09T05:40:33.002Z,101001.09
2024-05-09T05:43:07.947Z,101040.44
2024-05-09T05:45:35.502Z,101046.50
2024-05-09T05:48:05.918Z,101100.53
2024-05-09T05:50:37.412Z,101106.59
2024-05-09T05:53:07.372Z,101125.75
2024-05-09T05:55:39.641Z,101116.16
2024-05-09T05:58:12.373Z,101107.53
2024-05-09T06:00:41.435Z,101101.47
2024-05-09T06:03:10.364Z,101100.59
2024-05-09T06:05:38.485Z,101072.91
2024-05-09T06:08:07.006Z,101057.88
2024-05-09T06:10:38.539Z,101016.00
2024-05-09T06:13:10.744Z,101023.88
2024-05-09T06:15:38.202Z,101098.81
2024-05-09T06:18:06.355Z,101136.31
2024-05-09T06:20:36.818Z,101119.03
2024-05-09T06:23:06.363Z,101172.91
2024-05-09T06:25:34.260Z,101239.13
2024-05-09T06:28:01.882Z,101266.22
2024-05-09T06:30:38.340Z,101325.53
2024-05-09T06:33:11.811Z,101373.44
2024-05-09T06:35:41.915Z,101432.06
2024-05-09T06:38:09.954Z,101476.53
2024-05-09T06:40:41.885Z,101527.97
2024-05-09T06:43:11.616Z,101553.25
2024-05-09T06:45:41.949Z,101513.19
2024-05-09T06:48:10.306Z,101445.09
2024-05-09T06:50:39.603Z,101478.31
2024-05-09T06:53:08.322Z,101560.31
2024-05-09T06:55:37.343Z,101585.81
2024-05-09T06:58:06.711Z,101653.00
2024-05-09T07:00:39.163Z,101666.94
2024-05-09T07:03:13.998Z,101686.16
2024-05-09T07:05:44.812Z,101704.50
2024-05-09T07:08:13.042Z,101809.59
2024-05-09T07:10:40.582Z,101864.59
2024-05-09T07:13:10.974Z,101909.25
2024-05-09T07:15:38.453Z,102038.06
2024-05-09T07:18:13.021Z,102013.47
2024-05-09T07:20:41.353Z,102110.59
2024-05-09T07:23:09.362Z,102150.13
2024-05-09T07:25:37.027Z,102130.84
2024-05-09T07:28:04.966Z,102003.78
2024-05-09T07:30:34.463Z,102020.53
2024-05-09T07:33:03.209Z,101994.22
2024-05-09T07:35:33.897Z,101964.50
2024-05-09T07:38:01.650Z,102013.47
2024-05-09T07:40:35.364Z,102092.34
2024-05-09T07:43:04.654Z,102130.81
2024-05-09T07:45:48.212Z,102130.00
2024-05-09T07:52:37.240Z,102126.47
2024-05-09T07:53:45.446Z,102158.91
2024-05-09T07:56:16.835Z,102203.72
2024-05-09T07:58:46.615Z,102157.31
2024-05-09T08:01:14.019Z,102144.13
2024-05-09T08:03:41.751Z,102104.63
2024-05-09T08:06:11.747Z,102026.72
2024-05-09T08:08:39.109Z,101971.53
2024-05-09T08:11:06.909Z,101940.22
2024-05-09T08:13:34.377Z,102023.19
2024-05-09T08:16:01.745Z,102131.84
2024-05-09T08:18:29.595Z,102198.47
2024-05-09T08:20:57.131Z,102234.53
2024-05-09T08:23:27.080Z,102328.28
2024-05-09T08:25:54.509Z,102436.22
2024-05-09T08:28:22.085Z,102528.31
2024-05-09T08:30:50.145Z,102671.63
2024-05-09T08:33:17.860Z,102924.94
2024-05-09T08:35:45.318Z,103078.19
2024-05-09T08:38:12.600Z,103211.19
2024-05-09T08:40:42.949Z,103088.69
2024-05-09T08:43:12.172Z,103127.56
2024-05-09T08:45:41.016Z,103036.06
2024-05-09T08:48:09.127Z,103046.50
2024-05-09T08:50:40.649Z,103124.94
2024-05-09T08:53:09.208Z,103147.84
2024-05-09T08:55:40.593Z,103319.72
2024-05-09T08:58:16.221Z,103595.13
2024-05-09T09:00:50.136Z,103642.97
2024-05-09T09:03:19.763Z,103751.66
2024-05-09T09:05:54.989Z,103739.34
2024-05-09T09:08:23.014Z,103676.47
2024-05-09T09:10:51.373Z,103484.91
2024-05-09T09:13:21.447Z,103499.00
2024-05-09T09:15:49.258Z,103447.97
2024-05-09T09:18:17.498Z,103441.53
2024-05-09T09:20:45.448Z,103359.63
2024-05-09T09:23:13.046Z,103356.03
2024-05-09T09:25:40.729Z,103385.97
2024-05-09T09:28:08.976Z,103292.41
2024-05-09T09:30:42.349Z,103317.09
2024-05-09T09:33:10.646Z,103329.53
2024-05-09T09:35:40.811Z,103231.56
2024-05-09T09:38:09.310Z,103229.75
2024-05-09T09:40:42.838Z,103251.03
2024-05-09T09:43:19.171Z,103258.84
2024-05-09T09:45:51.533Z,103240.53
2024-05-09T09:48:20.567Z,103206.88
2024-05-09T09:50:49.190Z,103202.47
2024-05-09T09:53:17.468Z,103240.34
2024-05-09T09:55:45.263Z,103319.84
2024-05-09T09:58:14.835Z,103409.78
2024-05-09T10:00:43.174Z,103418.66
2024-05-09T10:03:13.673Z,103362.16
2024-05-09T10:05:43.955Z,103304.97
2024-05-09T10:08:14.360Z,103261.59
2024-05-09T10:10:46.947Z,103244.84
2024-05-09T10:13:14.637Z,103224.59
2024-05-09T10:15:45.783Z,103073.84
2024-05-09T10:18:16.512Z,103020.94
2024-05-09T10:20:45.660Z,102948.72
2024-05-09T10:23:26.577Z,102860.75
2024-05-09T10:25:58.626Z,102824.75
2024-05-09T10:28:26.701Z,102840.53
2024-05-09T10:31:07.584Z,102794.78
2024-05-09T10:33:46.442Z,102786.09
2024-05-09T10:36:14.745Z,102808.88
2024-05-09T10:38:43.459Z,102882.78
2024-05-09T10:41:11.894Z,102913.63
2024-05-09T10:43:40.536Z,102945.19
2024-05-09T10:46:08.436Z,103000.72
2024-05-09T10:48:37.725Z,102962.00
2024-05-09T10:51:09.134Z,102934.72
2024-05-09T10:53:41.474Z,102971.59
2024-05-09T10:56:09.458Z,102945.25
2024-05-09T10:58:36.967Z,103039.44
2024-05-09T11:01:07.213Z,103064.09
2024-05-09T11:03:35.993Z,103175.97
2024-05-09T11:06:04.129Z,103333.16
2024-05-09T11:08:36.462Z,103527.16
2024-05-09T11:11:04.025Z,103531.59
2024-05-09T11:13:32.365Z,103566.00
2024-05-09T11:16:01.209Z,103715.34
2024-05-09T11:18:33.259Z,103664.97
2024-05-09T11:21:04.036Z,103417.78
2024-05-09T11:23:31.423Z,103220.94
2024-05-09T11:26:01.366Z,103147.84
2024-05-09T11:28:29.181Z,103112.56
2024-05-09T11:31:05.997Z,103034.22
2024-05-09T11:33:36.730Z,103047.38
2024-05-09T11:36:05.805Z,102982.22
2024-05-09T11:38:33.207Z,102915.31
2024-05-09T11:41:03.689Z,102909.19
2024-05-09T11:43:31.108Z,102959.31
2024-05-09T11:45:59.027Z,102968.06
2024-05-09T11:48:26.941Z,102959.31
2024-05-09T11:50:55.327Z,103023.66
2024-05-09T11:53:22.884Z,103098.38
2024-05-09T11:55:50.337Z,103121.28
2024-05-09T11:58:21.425Z,103143.31
2024-05-09T12:00:49.509Z,103150.41
2024-05-09T12:03:17.081Z,103278.19
2024-05-09T12:05:45.289Z,103237.88
2024-05-09T12:08:13.015Z,103111.63
2024-05-09T12:10:40.853Z,102979.66
2024-05-09T12:13:08.554Z,102963.69
2024-05-09T12:15:39.313Z,103013.94
2024-05-09T12:18:08.202Z,103138.09
2024-05-09T12:20:39.054Z,103216.59
2024-05-09T12:23:10.228Z,103179.50
2024-05-09T12:25:38.919Z,103221.81
2024-05-09T12:28:06.999Z,103235.94
2024-05-09T12:30:38.763Z,103169.13
2024-05-09T12:33:12.543Z,103049.97
2024-05-09T12:35:43.368Z,103036.94
2024-05-09T12:38:13.201Z,103047.38
2024-05-09T12:40:40.513Z,103027.94
2024-05-09T12:43:09.404Z,103065.84
2024-05-09T12:45:38.538Z,102986.72
2024-05-09T12:48:07.481Z,102976.00
2024-05-09T12:50:38.262Z,102933.84
2024-05-09T12:53:06.074Z,102905.59
2024-05-09T12:55:41.136Z,102855.47
2024-05-09T12:58:16.152Z,102803.56
2024-05-09T13:00:44.528Z,102780.88
2024-05-09T13:03:12.965Z,102814.09
2024-05-09T13:05:43.196Z,102857.22
2024-05-09T13:08:10.867Z,102873.88
2024-05-09T13:10:38.386Z,102900.38
2024-05-09T13:13:05.962Z,102955.75
2024-05-09T13:15:34.609Z,103004.19
2024-05-09T13:18:03.617Z,103049.97
2024-05-09T13:20:34.123Z,103072.00
2024-05-09T13:23:07.933Z,103064.06
2024-05-09T13:25:36.570Z,103031.50
2024-05-09T13:28:05.186Z,103036.69
2024-05-09T13:30:39.997Z,103073.72
2024-05-09T13:33:10.301Z,103092.28
2024-05-09T13:35:38.601Z,103146.06
2024-05-09T13:38:08.501Z,103153.13
2024-05-09T13:40:36.791Z,103090.53
2024-05-09T13:43:05.190Z,103045.56
2024-05-09T13:45:33.523Z,103029.75
2024-05-09T13:48:01.645Z,102987.44
2024-05-09T13:50:34.572Z,102946.06
2024-05-09T13:53:04.174Z,102954.94
2024-05-09T13:55:34.239Z,102947.97
2024-05-09T13:58:02.168Z,102908.25
2024-05-09T14:00:42.046Z,102890.66
2024-05-09T14:03:15.521Z,102888.00
2024-05-09T14:05:43.703Z,102915.25
2024-05-09T14:08:11.913Z,102948.72
2024-05-09T14:10:42.056Z,102934.78
2024-05-09T14:13:09.527Z,102891.56
2024-05-09T14:15:37.090Z,102883.59
2024-05-09T14:18:05.358Z,102870.38
2024-05-09T14:20:32.904Z,102886.25
2024-05-09T14:23:00.923Z,102926.66
2024-05-09T14:25:28.895Z,103012.19
2024-05-09T14:27:59.315Z,103171.63
2024-05-09T14:30:34.655Z,103355.88
2024-05-09T14:33:06.543Z,103432.72
2024-05-09T14:35:34.674Z,103507.78
2024-05-09T14:38:02.421Z,103508.59
2024-05-09T14:40:39.072Z,103487.47
2024-05-09T14:43:15.129Z,103429.13
2024-05-09T14:45:43.763Z,103454.84
2024-05-09T14:48:12.218Z,103467.97
2024-05-09T14:50:40.804Z,103628.69
2024-05-09T14:53:09.164Z,103777.25
2024-05-09T14:55:38.126Z,103726.03
2024-05-09T14:58:07.023Z,103608.47
2024-05-09T15:00:41.307Z,103522.00
2024-05-09T15:03:11.944Z,103415.06
2024-05-09T15:05:39.518Z,103342.69
2024-05-09T15:08:07.822Z,103240.34
2024-05-09T15:10:36.773Z,103196.31
2024-05-09T15:13:07.220Z,103180.53
2024-05-09T15:15:39.432Z,103163.72
2024-05-09T15:18:07.602Z,103159.31
2024-05-09T15:20:37.069Z,103123.09
2024-05-09T15:23:07.136Z,103101.09
2024-05-09T15:25:36.319Z,103039.53
2024-05-09T15:28:04.763Z,102993.63
2024-05-09T15:30:33.946Z,102989.22
2024-05-09T15:33:06.895Z,102983.06
2024-05-09T15:35:35.123Z,102985.75
2024-05-09T15:38:03.605Z,102984.00
2024-05-09T15:40:39.431Z,102989.22
2024-05-09T15:43:11.199Z,102976.00
2024-05-09T15:45:40.840Z,102993.75
2024-05-09T15:48:12.087Z,102995.41
2024-05-09T15:50:41.742Z,103019.19
2024-05-09T15:53:10.984Z,103019.16
2024-05-09T15:55:39.516Z,103029.81
2024-05-09T15:58:07.774Z,103018.34
2024-05-09T16:00:39.630Z,102952.25
2024-05-09T16:03:14.300Z,102923.19
2024-05-09T16:05:44.148Z,102912.66
2024-05-09T16:08:12.365Z,102905.59
2024-05-09T16:10:44.099Z,102911.09
2024-05-09T16:13:12.813Z,102919.72
2024-05-09T16:15:40.631Z,102921.47
2024-05-09T16:18:08.805Z,102928.53
2024-05-09T16:20:41.484Z,102925.91
2024-05-09T16:23:10.742Z,102906.53
2024-05-09T16:25:40.053Z,102878.38
2024-05-09T16:28:10.472Z,102854.63
2024-05-09T16:30:38.702Z,102807.97
2024-05-09T16:33:06.814Z,102793.91
2024-05-09T16:35:34.287Z,102751.69
2024-05-09T16:38:05.144Z,102736.75
2024-05-09T16:40:38.768Z,102713.91
2024-05-09T16:43:09.220Z,102662.03
2024-05-09T16:45:37.660Z,102638.38
2024-05-09T16:48:06.907Z,102608.47
2024-05-09T16:50:35.725Z,102555.75
2024-05-09T16:53:07.048Z,102517.09
2024-05-09T16:55:36.128Z,102491.56
2024-05-09T16:58:04.467Z,102443.25
2024-05-09T17:00:40.205Z,102426.69
2024-05-09T17:03:15.313Z,102405.66
2024-05-09T17:05:43.788Z,102356.50
2024-05-09T17:08:15.975Z,102331.94
2024-05-09T17:10:43.450Z,102269.88
2024-05-09T17:13:10.894Z,102231.16
2024-05-09T17:15:38.368Z,102204.84
2024-05-09T17:18:07.076Z,102182.13
2024-05-09T17:20:37.579Z,102170.59
2024-05-09T17:23:06.573Z,102148.63
2024-05-09T17:25:37.170Z,102102.22
2024-05-09T17:28:05.274Z,102097.91
2024-05-09T17:30:36.445Z,102090.88
2024-05-09T17:33:07.492Z,102059.34
2024-05-09T17:35:35.639Z,102041.81
2024-05-09T17:38:03.161Z,102043.59
2024-05-09T17:40:34.760Z,102031.38
2024-05-09T17:43:08.793Z,102008.56
2024-05-09T17:45:37.814Z,102039.13
2024-05-09T17:48:06.010Z,102054.09
2024-05-09T17:50:36.167Z,102063.78
2024-05-09T17:53:05.896Z,102070.75
2024-05-09T17:55:33.731Z,102084.91
2024-05-09T17:58:01.656Z,102090.00
2024-05-09T18:00:38.613Z,102098.91
2024-05-09T18:03:09.389Z,102094.47
2024-05-09T18:05:37.856Z,102070.75
2024-05-09T18:08:06.289Z,102035.75
2024-05-09T18:10:38.145Z,102038.28
2024-05-09T18:13:07.965Z,102034.97
2024-05-09T18:15:38.689Z,102034.91
2024-05-09T18:18:07.100Z,102046.25
2024-05-09T18:20:42.389Z,102034.91
2024-05-09T18:23:13.534Z,102031.38
2024-05-09T18:25:42.053Z,102027.94
2024-05-09T18:28:09.789Z,102006.03
2024-05-09T18:30:40.587Z,102001.66
2024-05-09T18:33:09.912Z,101971.94
2024-05-09T18:35:37.704Z,101964.91
2024-05-09T18:38:13.247Z,101970.22
2024-05-09T18:40:43.643Z,101971.94
2024-05-09T18:43:12.627Z,101957.06
2024-05-09T18:45:42.614Z,101945.66
2024-05-09T18:48:10.462Z,101936.88
2024-05-09T18:50:40.419Z,101947.50
2024-05-09T18:53:09.284Z,101948.31
2024-05-09T18:55:36.586Z,101952.78
2024-05-09T18:58:04.943Z,101959.72
2024-05-09T19:00:36.341Z,101953.66
2024-05-09T19:03:12.210Z,101971.19
2024-05-09T19:05:42.177Z,101967.63
2024-05-09T19:08:10.669Z,101968.47
2024-05-09T19:10:39.327Z,101985.25
2024-05-09T19:13:11.033Z,101994.75
2024-05-09T19:15:41.095Z,101994.81
2024-05-09T19:18:13.712Z,101996.47
2024-05-09T19:20:42.487Z,102008.81
2024-05-09T19:23:10.050Z,102002.66
2024-05-09T19:25:37.329Z,101998.47
2024-05-09T19:28:05.756Z,102016.72
2024-05-09T19:30:39.016Z,102031.63
2024-05-09T19:33:13.318Z,102016.72
2024-05-09T19:35:41.662Z,102021.28
2024-05-09T19:38:09.115Z,102028.06
2024-05-09T19:40:36.762Z,102015.25
2024-05-09T19:43:05.506Z,102036.81
2024-05-09T19:45:34.768Z,102026.34
2024-05-09T19:48:03.418Z,102047.44
2024-05-09T19:50:41.145Z,102043.84
2024-05-09T19:53:12.826Z,102047.44
2024-05-09T19:55:41.108Z,102036.09
2024-05-09T19:58:09.234Z,102078.03
2024-05-09T20:00:40.344Z,102072.72
2024-05-09T20:03:10.611Z,102088.53
2024-05-09T20:05:42.210Z,102085.88
2024-05-09T20:08:09.730Z,102134.16
2024-05-09T20:10:37.499Z,102142.13
2024-05-09T20:13:07.124Z,102135.06
2024-05-09T20:15:37.001Z,102152.53
2024-05-09T20:18:05.532Z,102171.84
2024-05-09T20:20:39.280Z,102148.41
2024-05-09T20:23:12.944Z,102164.81
2024-05-09T20:25:40.702Z,102175.50
2024-05-09T20:28:08.398Z,102179.75
2024-05-09T20:30:36.631Z,102191.25
2024-05-09T20:33:07.170Z,102211.38
2024-05-09T20:35:36.503Z,102184.34
2024-05-09T20:38:04.821Z,102212.22
2024-05-09T20:40:38.460Z,102204.34
2024-05-09T20:43:08.407Z,102225.34
2024-05-09T20:45:36.432Z,102232.41
2024-05-09T20:48:04.534Z,102253.44
2024-05-09T20:50:39.221Z,102263.28
2024-05-09T20:53:12.729Z,102268.34
2024-05-09T20:55:44.950Z,102241.41
2024-05-09T20:58:13.110Z,102250.00
2024-05-09T21:00:43.993Z,102275.38
2024-05-09T21:03:15.591Z,102286.00
2024-05-09T21:05:44.898Z,102252.91
2024-05-09T21:08:12.394Z,102271.13
2024-05-09T21:10:40.373Z,102270.19
2024-05-09T21:13:10.461Z,102300.94
2024-05-09T21:15:37.799Z,102322.00
2024-05-09T21:18:05.519Z,102317.56
2024-05-09T21:20:33.715Z,102345.66
2024-05-09T21:23:01.915Z,102364.13
2024-05-09T21:25:31.233Z,102384.25
2024-05-09T21:27:58.878Z,102379.88
2024-05-09T21:30:38.485Z,102405.41
2024-05-09T21:33:11.246Z,102403.66
2024-05-09T21:35:40.455Z,102414.16
2024-05-09T21:38:07.998Z,102417.88
2024-05-09T21:40:36.914Z,102419.38
2024-05-09T21:43:05.722Z,102433.50
2024-05-09T21:45:36.686Z,102422.09
2024-05-09T21:48:04.994Z,102412.50
2024-05-09T21:50:39.247Z,102410.84
2024-05-09T21:53:09.013Z,102430.13
2024-05-09T21:55:36.768Z,102424.81
2024-05-09T21:58:04.499Z,102423.00
2024-05-09T22:00:36.653Z,102407.25
2024-05-09T22:03:10.511Z,102405.53
2024-05-09T22:05:40.094Z,102430.13
2024-05-09T22:08:08.487Z,102413.50
2024-05-09T22:10:37.149Z,102415.28
2024-05-09T22:13:05.766Z,102384.63
2024-05-09T22:15:36.186Z,102365.31
2024-05-09T22:18:05.222Z,102375.81
2024-05-09T22:20:38.711Z,102351.34
2024-05-09T22:23:07.658Z,102353.88
2024-05-09T22:25:35.601Z,102354.81
2024-05-09T22:28:03.821Z,102368.91
2024-05-09T22:30:36.345Z,102371.50
2024-05-09T22:33:07.140Z,102383.78
2024-05-09T22:35:37.862Z,102382.00
2024-05-09T22:38:05.677Z,102368.03
2024-05-09T22:40:42.731Z,102358.41
2024-05-09T22:43:18.036Z,102358.41
2024-05-09T22:45:45.663Z,102345.28
2024-05-09T22:48:13.049Z,102337.38
2024-05-09T22:50:45.534Z,102370.69
2024-05-09T22:53:12.872Z,102380.31
2024-05-09T22:55:40.290Z,102366.31
2024-05-09T22:58:08.006Z,102365.44
2024-05-09T23:00:35.721Z,102375.13
2024-05-09T23:03:04.191Z,102349.75
2024-05-09T23:05:33.044Z,102334.72
2024-05-09T23:08:03.675Z,102348.00
2024-05-09T23:10:35.950Z,102320.84
2024-05-09T23:13:06.592Z,102334.06
2024-05-09T23:15:35.299Z,102255.94
2024-05-09T23:18:02.724Z,102252.50
2024-05-09T23:20:37.050Z,102172.69
2024-05-09T23:23:10.965Z,102135.13
2024-05-09T23:25:39.688Z,102095.69
2024-05-09T23:28:07.480Z,102078.19
2024-05-09T23:30:38.899Z,102079.91
2024-05-09T23:33:08.714Z,102036.06
2024-05-09T23:35:36.324Z,101998.66
2024-05-09T23:38:04.246Z,101995.00
2024-05-09T23:40:39.455Z,101906.56
2024-05-09T23:43:09.203Z,101892.50
2024-05-09T23:45:37.426Z,101834.91
2024-05-09T23:48:05.811Z,101860.22
2024-05-09T23:50:37.035Z,101854.25
2024-05-09T23:53:07.647Z,101853.19
2024-05-09T23:55:39.488Z,101872.47
2024-05-09T23:58:08.366Z,101826.94
